sensor_id;sensor_type;location;lat;lon;timestamp;pressure;altitude;pressure_sealevel;temperature;humidity
65175;BME280;51761;42.126;24.752;2023-04-07T00:01:37;99445.53;;;7.55;45.83
65175;BME280;51761;42.126;24.752;2023-04-07T00:04:02;99444.31;;;7.60;45.95
65175;BME280;51761;42.126;24.752;2023-04-07T00:06:28;99455.41;;;7.60;45.62
65175;BME280;51761;42.126;24.752;2023-04-07T00:08:53;99433.25;;;7.49;45.66
65175;BME280;51761;42.126;24.752;2023-04-07T00:11:19;99454.59;;;7.63;45.57
65175;BME280;51761;42.126;24.752;2023-04-07T00:13:44;99448.72;;;7.50;45.18
65175;BME280;51761;42.126;24.752;2023-04-07T00:16:10;99422.94;;;7.50;44.99
65175;BME280;51761;42.126;24.752;2023-04-07T00:18:35;99449.84;;;7.60;45.66
65175;BME280;51761;42.126;24.752;2023-04-07T00:21:01;99444.66;;;7.69;44.86
65175;BME280;51761;42.126;24.752;2023-04-07T00:23:26;99449.41;;;7.65;44.68
65175;BME280;51761;42.126;24.752;2023-04-07T00:25:52;99429.28;;;7.50;44.57
65175;BME280;51761;42.126;24.752;2023-04-07T00:28:17;99445.88;;;7.61;44.14
65175;BME280;51761;42.126;24.752;2023-04-07T00:30:42;99422.63;;;7.41;44.94
65175;BME280;51761;42.126;24.752;2023-04-07T00:33:08;99450.72;;;7.53;45.35
65175;BME280;51761;42.126;24.752;2023-04-07T00:35:33;99449.47;;;7.58;45.39
65175;BME280;51761;42.126;24.752;2023-04-07T00:37:59;99439.66;;;7.43;45.78
65175;BME280;51761;42.126;24.752;2023-04-07T00:40:24;99446.81;;;7.40;45.27
65175;BME280;51761;42.126;24.752;2023-04-07T00:42:51;99449.19;;;7.42;45.58
65175;BME280;51761;42.126;24.752;2023-04-07T00:45:16;99449.97;;;7.42;45.93
65175;BME280;51761;42.126;24.752;2023-04-07T00:47:42;99446.03;;;7.40;45.56
65175;BME280;51761;42.126;24.752;2023-04-07T00:50:08;99421.91;;;7.23;45.91
65175;BME280;51761;42.126;24.752;2023-04-07T00:52:34;99452.81;;;7.32;46.34
65175;BME280;51761;42.126;24.752;2023-04-07T00:55:00;99448.03;;;7.36;45.89
65175;BME280;51761;42.126;24.752;2023-04-07T00:57:25;99446.47;;;7.31;46.17
65175;BME280;51761;42.126;24.752;2023-04-07T00:59:51;99445.72;;;7.27;45.52
65175;BME280;51761;42.126;24.752;2023-04-07T01:04:50;99425.22;;;6.97;45.24
65175;BME280;51761;42.126;24.752;2023-04-07T01:07:22;99441.03;;;7.10;45.83
65175;BME280;51761;42.126;24.752;2023-04-07T01:09:56;99435.47;;;7.10;45.07
65175;BME280;51761;42.126;24.752;2023-04-07T01:14:59;99443.41;;;7.05;45.18
65175;BME280;51761;42.126;24.752;2023-04-07T01:17:31;99428.44;;;6.92;45.43
65175;BME280;51761;42.126;24.752;2023-04-07T01:20:04;99440.69;;;7.01;45.43
65175;BME280;51761;42.126;24.752;2023-04-07T01:22:40;99446.22;;;6.98;45.27
65175;BME280;51761;42.126;24.752;2023-04-07T01:25:25;99439.88;;;7.01;45.27
65175;BME280;51761;42.126;24.752;2023-04-07T01:30:31;99447.84;;;6.88;45.85
65175;BME280;51761;42.126;24.752;2023-04-07T01:32:58;99443.53;;;6.77;45.95
65175;BME280;51761;42.126;24.752;2023-04-07T01:35:26;99422.56;;;6.69;45.91
65175;BME280;51761;42.126;24.752;2023-04-07T01:37:54;99453.06;;;6.83;46.08
65175;BME280;51761;42.126;24.752;2023-04-07T01:40:20;99444.72;;;6.79;45.64
65175;BME280;51761;42.126;24.752;2023-04-07T01:42:47;99419.78;;;6.69;46.06
65175;BME280;51761;42.126;24.752;2023-04-07T01:45:15;99447.13;;;6.74;46.14
65175;BME280;51761;42.126;24.752;2023-04-07T01:47:42;99441.59;;;6.63;46.63
65175;BME280;51761;42.126;24.752;2023-04-07T01:50:10;99450.31;;;6.72;46.15
65175;BME280;51761;42.126;24.752;2023-04-07T01:52:36;99439.66;;;6.57;46.28
65175;BME280;51761;42.126;24.752;2023-04-07T01:55:03;99450.31;;;6.65;45.98
65175;BME280;51761;42.126;24.752;2023-04-07T01:57:29;99456.25;;;6.71;46.38
65175;BME280;51761;42.126;24.752;2023-04-07T01:59:55;99450.69;;;6.71;46.84
65175;BME280;51761;42.126;24.752;2023-04-07T02:02:20;99435.69;;;6.51;46.49
65175;BME280;51761;42.126;24.752;2023-04-07T02:07:19;99453.88;;;6.62;46.26
65175;BME280;51761;42.126;24.752;2023-04-07T02:09:47;99429.34;;;6.50;46.23
65175;BME280;51761;42.126;24.752;2023-04-07T02:12:15;99449.91;;;6.67;46.55
65175;BME280;51761;42.126;24.752;2023-04-07T02:14:42;99458.63;;;6.72;47.58
65175;BME280;51761;42.126;24.752;2023-04-07T02:17:08;99434.91;;;6.54;46.42
65175;BME280;51761;42.126;24.752;2023-04-07T02:19:35;99454.66;;;6.70;46.28
65175;BME280;51761;42.126;24.752;2023-04-07T02:22:02;99425.75;;;6.60;44.99
65175;BME280;51761;42.126;24.752;2023-04-07T02:24:28;99457.84;;;6.72;45.49
65175;BME280;51761;42.126;24.752;2023-04-07T02:26:53;99431.72;;;6.52;45.83
65175;BME280;51761;42.126;24.752;2023-04-07T02:29:20;99448.72;;;6.64;45.73
65175;BME280;51761;42.126;24.752;2023-04-07T02:31:45;99451.13;;;6.66;45.57
65175;BME280;51761;42.126;24.752;2023-04-07T02:34:11;99447.94;;;6.60;45.58
65175;BME280;51761;42.126;24.752;2023-04-07T02:36:36;99449.94;;;6.56;45.87
65175;BME280;51761;42.126;24.752;2023-04-07T02:39:02;99455.53;;;6.53;45.88
65175;BME280;51761;42.126;24.752;2023-04-07T02:41:28;99457.50;;;6.49;46.19
65175;BME280;51761;42.126;24.752;2023-04-07T02:43:53;99410.78;;;6.23;46.30
65175;BME280;51761;42.126;24.752;2023-04-07T02:46:19;99458.28;;;6.53;46.51
65175;BME280;51761;42.126;24.752;2023-04-07T02:48:44;99458.69;;;6.51;46.72
65175;BME280;51761;42.126;24.752;2023-04-07T02:51:10;99457.88;;;6.58;46.34
65175;BME280;51761;42.126;24.752;2023-04-07T02:53:35;99464.25;;;6.55;46.35
65175;BME280;51761;42.126;24.752;2023-04-07T02:56:01;99461.06;;;6.53;46.46
65175;BME280;51761;42.126;24.752;2023-04-07T02:58:26;99449.97;;;6.53;46.75
65175;BME280;51761;42.126;24.752;2023-04-07T03:00:52;99465.81;;;6.49;47.02
65175;BME280;51761;42.126;24.752;2023-04-07T03:03:17;99445.25;;;6.36;46.75
65175;BME280;51761;42.126;24.752;2023-04-07T03:05:43;99442.84;;;6.34;46.78
65175;BME280;51761;42.126;24.752;2023-04-07T03:08:08;99462.28;;;6.34;47.36
65175;BME280;51761;42.126;24.752;2023-04-07T03:10:34;99449.22;;;6.21;46.71
65175;BME280;51761;42.126;24.752;2023-04-07T03:13:00;99457.94;;;6.30;46.85
65175;BME280;51761;42.126;24.752;2023-04-07T03:15:25;99463.06;;;6.42;46.53
65175;BME280;51761;42.126;24.752;2023-04-07T03:17:51;99461.06;;;6.46;46.31
65175;BME280;51761;42.126;24.752;2023-04-07T03:20:16;99458.69;;;6.37;46.72
65175;BME280;51761;42.126;24.752;2023-04-07T03:22:42;99472.19;;;6.35;46.59
65175;BME280;51761;42.126;24.752;2023-04-07T03:25:09;99472.19;;;6.39;46.98
65175;BME280;51761;42.126;24.752;2023-04-07T03:27:35;99452.78;;;6.18;47.24
65175;BME280;51761;42.126;24.752;2023-04-07T03:30:01;99470.59;;;6.41;47.26
65175;BME280;51761;42.126;24.752;2023-04-07T03:32:26;99471.00;;;6.40;47.25
65175;BME280;51761;42.126;24.752;2023-04-07T03:34:52;99467.44;;;6.36;47.44
65175;BME280;51761;42.126;24.752;2023-04-07T03:37:17;99467.81;;;6.34;47.45
65175;BME280;51761;42.126;24.752;2023-04-07T03:39:43;99476.16;;;6.38;47.31
65175;BME280;51761;42.126;24.752;2023-04-07T03:42:08;99474.56;;;6.40;47.63
65175;BME280;51761;42.126;24.752;2023-04-07T03:44:33;99472.56;;;6.37;47.36
65175;BME280;51761;42.126;24.752;2023-04-07T03:46:59;99476.50;;;6.47;47.15
65175;BME280;51761;42.126;24.752;2023-04-07T03:49:25;99478.50;;;6.46;47.32
65175;BME280;51761;42.126;24.752;2023-04-07T03:51:51;99479.28;;;6.50;46.70
65175;BME280;51761;42.126;24.752;2023-04-07T03:54:16;99482.84;;;6.51;46.91
65175;BME280;51761;42.126;24.752;2023-04-07T03:56:42;99469.78;;;6.41;46.82
65175;BME280;51761;42.126;24.752;2023-04-07T03:59:07;99471.38;;;6.42;47.03
65175;BME280;51761;42.126;24.752;2023-04-07T04:01:33;99495.13;;;6.60;47.14
65175;BME280;51761;42.126;24.752;2023-04-07T04:03:59;99487.22;;;6.55;46.80
65175;BME280;51761;42.126;24.752;2023-04-07T04:06:25;99495.91;;;6.57;47.23
65175;BME280;51761;42.126;24.752;2023-04-07T04:08:51;99496.72;;;6.58;47.15
65175;BME280;51761;42.126;24.752;2023-04-07T04:11:16;99493.94;;;6.51;47.30
65175;BME280;51761;42.126;24.752;2023-04-07T04:13:42;99471.38;;;6.52;46.81
65175;BME280;51761;42.126;24.752;2023-04-07T04:16:07;99497.13;;;6.60;46.82
65175;BME280;51761;42.126;24.752;2023-04-07T04:18:33;99434.97;;;6.26;47.21
65175;BME280;51761;42.126;24.752;2023-04-07T04:20:58;99500.28;;;6.62;46.86
65175;BME280;51761;42.126;24.752;2023-04-07T04:23:24;99507.00;;;6.71;46.79
65175;BME280;51761;42.126;24.752;2023-04-07T04:25:49;99505.81;;;6.65;46.66
65175;BME280;51761;42.126;24.752;2023-04-07T04:28:16;99500.25;;;6.69;47.77
65175;BME280;51761;42.126;24.752;2023-04-07T04:30:41;99514.91;;;6.76;46.78
65175;BME280;51761;42.126;24.752;2023-04-07T04:33:06;99497.88;;;6.74;46.79
65175;BME280;51761;42.126;24.752;2023-04-07T04:35:33;99518.41;;;6.98;47.30
65175;BME280;51761;42.126;24.752;2023-04-07T04:37:58;99510.09;;;7.01;47.07
65175;BME280;51761;42.126;24.752;2023-04-07T04:40:24;99519.97;;;7.09;46.10
65175;BME280;51761;42.126;24.752;2023-04-07T04:42:49;99519.16;;;7.16;46.29
65175;BME280;51761;42.126;24.752;2023-04-07T04:45:15;99514.75;;;7.22;47.15
65175;BME280;51761;42.126;24.752;2023-04-07T04:47:40;99521.47;;;7.31;45.53
65175;BME280;51761;42.126;24.752;2023-04-07T04:50:08;99531.34;;;7.36;45.36
65175;BME280;51761;42.126;24.752;2023-04-07T04:52:34;99524.69;;;7.26;45.52
65175;BME280;51761;42.126;24.752;2023-04-07T04:55:00;99516.31;;;7.30;45.09
65175;BME280;51761;42.126;24.752;2023-04-07T04:57:25;99531.78;;;7.34;45.22
65175;BME280;51761;42.126;24.752;2023-04-07T04:59:51;99532.50;;;7.45;45.35
65175;BME280;51761;42.126;24.752;2023-04-07T05:02:16;99518.66;;;7.38;45.05
65175;BME280;51761;42.126;24.752;2023-04-07T05:04:42;99535.19;;;7.63;44.90
65175;BME280;51761;42.126;24.752;2023-04-07T05:07:07;99519.78;;;7.51;43.55
65175;BME280;51761;42.126;24.752;2023-04-07T05:09:33;99543.53;;;7.70;43.18
65175;BME280;51761;42.126;24.752;2023-04-07T05:11:58;99541.13;;;7.72;43.48
65175;BME280;51761;42.126;24.752;2023-04-07T05:14:25;99545.00;;;7.88;42.91
65175;BME280;51761;42.126;24.752;2023-04-07T05:16:50;99523.97;;;7.83;43.57
65175;BME280;51761;42.126;24.752;2023-04-07T05:19:17;99547.22;;;8.10;42.81
65175;BME280;51761;42.126;24.752;2023-04-07T05:21:42;99553.94;;;8.20;42.34
65175;BME280;51761;42.126;24.752;2023-04-07T05:24:08;99549.13;;;8.27;41.29
65175;BME280;51761;42.126;24.752;2023-04-07T05:26:33;99561.25;;;8.47;41.53
65175;BME280;51761;42.126;24.752;2023-04-07T05:28:59;99560.41;;;8.57;41.15
65175;BME280;51761;42.126;24.752;2023-04-07T05:31:24;99547.53;;;8.70;40.95
65175;BME280;51761;42.126;24.752;2023-04-07T05:33:50;99555.34;;;8.86;41.68
65175;BME280;51761;42.126;24.752;2023-04-07T05:36:15;99557.66;;;8.91;39.87
65175;BME280;51761;42.126;24.752;2023-04-07T05:38:41;99556.34;;;9.06;39.81
65175;BME280;51761;42.126;24.752;2023-04-07T05:41:06;99542.19;;;9.23;39.04
65175;BME280;51761;42.126;24.752;2023-04-07T05:43:32;99546.97;;;9.56;40.37
65175;BME280;51761;42.126;24.752;2023-04-07T05:45:57;99556.22;;;9.79;38.80
65175;BME280;51761;42.126;24.752;2023-04-07T05:48:23;99540.38;;;10.03;39.75
65175;BME280;51761;42.126;24.752;2023-04-07T05:50:48;99543.53;;;10.05;38.01
65175;BME280;51761;42.126;24.752;2023-04-07T05:53:14;99568.41;;;10.19;37.04
65175;BME280;51761;42.126;24.752;2023-04-07T05:55:41;99563.84;;;10.05;37.89
65175;BME280;51761;42.126;24.752;2023-04-07T05:58:07;99558.44;;;9.91;37.94
65175;BME280;51761;42.126;24.752;2023-04-07T06:00:32;99553.84;;;10.08;37.72
65175;BME280;51761;42.126;24.752;2023-04-07T06:02:58;99562.16;;;10.38;37.88
65175;BME280;51761;42.126;24.752;2023-04-07T06:05:23;99565.69;;;10.88;36.94
65175;BME280;51761;42.126;24.752;2023-04-07T06:07:49;99559.94;;;11.17;38.83
65175;BME280;51761;42.126;24.752;2023-04-07T06:10:16;99571.94;;;11.76;35.33
65175;BME280;51761;42.126;24.752;2023-04-07T06:12:41;99562.88;;;12.24;33.75
65175;BME280;51761;42.126;24.752;2023-04-07T06:15:07;99566.50;;;12.72;33.32
65175;BME280;51761;42.126;24.752;2023-04-07T06:17:32;99552.41;;;12.91;33.04
65175;BME280;51761;42.126;24.752;2023-04-07T06:19:58;99570.28;;;13.83;31.66
65175;BME280;51761;42.126;24.752;2023-04-07T06:22:23;99565.34;;;13.99;31.43
65175;BME280;51761;42.126;24.752;2023-04-07T06:24:49;99576.22;;;13.85;32.68
65175;BME280;51761;42.126;24.752;2023-04-07T06:27:15;99564.69;;;13.95;30.25
65175;BME280;51761;42.126;24.752;2023-04-07T06:29:41;99550.53;;;13.99;30.75
65175;BME280;51761;42.126;24.752;2023-04-07T06:32:06;99538.56;;;14.48;29.34
65175;BME280;51761;42.126;24.752;2023-04-07T06:34:32;99562.28;;;15.40;28.65
65175;BME280;51761;42.126;24.752;2023-04-07T06:36:57;99581.88;;;15.43;30.00
65175;BME280;51761;42.126;24.752;2023-04-07T06:39:25;99580.59;;;15.57;31.34
65175;BME280;51761;42.126;24.752;2023-04-07T06:41:51;99579.81;;;15.10;30.85
65175;BME280;51761;42.126;24.752;2023-04-07T06:44:16;99582.25;;;15.20;30.83
65175;BME280;51761;42.126;24.752;2023-04-07T06:46:42;99587.84;;;15.45;28.98
65175;BME280;51761;42.126;24.752;2023-04-07T06:49:08;99591.25;;;15.28;29.97
65175;BME280;51761;42.126;24.752;2023-04-07T06:51:34;99591.00;;;14.88;31.19
65175;BME280;51761;42.126;24.752;2023-04-07T06:53:59;99595.41;;;14.77;30.28
65175;BME280;51761;42.126;24.752;2023-04-07T06:56:25;99584.69;;;14.97;38.28
65175;BME280;51761;42.126;24.752;2023-04-07T06:58:51;99568.88;;;16.10;36.85
65175;BME280;51761;42.126;24.752;2023-04-07T07:01:16;99577.13;;;17.14;50.52
65175;BME280;51761;42.126;24.752;2023-04-07T07:03:42;99595.38;;;17.93;27.33
65175;BME280;51761;42.126;24.752;2023-04-07T07:06:07;99582.00;;;17.31;33.64
65175;BME280;51761;42.126;24.752;2023-04-07T07:08:33;99590.06;;;17.68;29.04
65175;BME280;51761;42.126;24.752;2023-04-07T07:10:58;99585.63;;;17.32;25.40
65175;BME280;51761;42.126;24.752;2023-04-07T07:13:25;99584.31;;;18.13;27.98
65175;BME280;51761;42.126;24.752;2023-04-07T07:15:51;99572.91;;;17.90;32.01
65175;BME280;51761;42.126;24.752;2023-04-07T07:18:18;99574.97;;;17.80;34.43
65175;BME280;51761;42.126;24.752;2023-04-07T07:20:43;99589.06;;;17.98;26.80
65175;BME280;51761;42.126;24.752;2023-04-07T07:23:09;99602.16;;;16.94;26.67
65175;BME280;51761;42.126;24.752;2023-04-07T07:25:35;99584.31;;;16.27;27.02
65175;BME280;51761;42.126;24.752;2023-04-07T07:28:00;99579.91;;;16.17;29.55
65175;BME280;51761;42.126;24.752;2023-04-07T07:30:26;99588.25;;;16.51;31.44
65175;BME280;51761;42.126;24.752;2023-04-07T07:32:52;99600.38;;;17.53;31.38
65175;BME280;51761;42.126;24.752;2023-04-07T07:35:19;99596.63;;;17.56;25.72
65175;BME280;51761;42.126;24.752;2023-04-07T07:37:44;99594.44;;;17.43;24.88
65175;BME280;51761;42.126;24.752;2023-04-07T07:40:10;99578.28;;;17.79;26.32
65175;BME280;51761;42.126;24.752;2023-04-07T07:42:36;99604.41;;;18.33;25.56
65175;BME280;51761;42.126;24.752;2023-04-07T07:45:01;99596.81;;;18.48;29.17
65175;BME280;51761;42.126;24.752;2023-04-07T07:47:27;99597.13;;;18.50;24.31
65175;BME280;51761;42.126;24.752;2023-04-07T07:49:53;99591.84;;;18.25;25.01
65175;BME280;51761;42.126;24.752;2023-04-07T07:52:18;99599.41;;;18.28;24.56
65175;BME280;51761;42.126;24.752;2023-04-07T07:54:45;99581.00;;;18.24;27.53
65175;BME280;51761;42.126;24.752;2023-04-07T07:57:10;99596.44;;;18.64;25.52
65175;BME280;51761;42.126;24.752;2023-04-07T07:59:37;99578.47;;;18.76;24.07
65175;BME280;51761;42.126;24.752;2023-04-07T08:02:02;99585.28;;;18.93;25.25
65175;BME280;51761;42.126;24.752;2023-04-07T08:04:28;99571.69;;;19.06;26.37
65175;BME280;51761;42.126;24.752;2023-04-07T08:06:53;99580.50;;;19.08;24.36
65175;BME280;51761;42.126;24.752;2023-04-07T08:09:19;99586.81;;;19.03;23.50
65175;BME280;51761;42.126;24.752;2023-04-07T08:11:45;99588.50;;;19.10;23.69
65175;BME280;51761;42.126;24.752;2023-04-07T08:14:13;99567.84;;;18.95;26.99
65175;BME280;51761;42.126;24.752;2023-04-07T08:16:38;99581.22;;;18.62;26.74
65175;BME280;51761;42.126;24.752;2023-04-07T08:19:04;99575.97;;;19.02;24.36
65175;BME280;51761;42.126;24.752;2023-04-07T08:21:29;99570.03;;;19.46;27.05
65175;BME280;51761;42.126;24.752;2023-04-07T08:23:55;99579.16;;;19.65;26.72
65175;BME280;51761;42.126;24.752;2023-04-07T08:26:21;99551.16;;;19.96;25.55
65175;BME280;51761;42.126;24.752;2023-04-07T08:28:48;99551.00;;;19.61;24.64
65175;BME280;51761;42.126;24.752;2023-04-07T08:31:16;99565.19;;;19.76;25.64
65175;BME280;51761;42.126;24.752;2023-04-07T08:33:41;99544.25;;;20.11;24.21
65175;BME280;51761;42.126;24.752;2023-04-07T08:36:06;99542.72;;;19.58;25.10
65175;BME280;51761;42.126;24.752;2023-04-07T08:38:32;99571.94;;;19.40;23.47
65175;BME280;51761;42.126;24.752;2023-04-07T08:41:01;99556.44;;;19.04;24.48
65175;BME280;51761;42.126;24.752;2023-04-07T08:43:28;99565.13;;;19.00;25.41
65175;BME280;51761;42.126;24.752;2023-04-07T08:45:56;99539.03;;;18.73;25.07
65175;BME280;51761;42.126;24.752;2023-04-07T08:48:23;99561.13;;;18.83;23.50
65175;BME280;51761;42.126;24.752;2023-04-07T08:50:51;99551.81;;;19.15;25.20
65175;BME280;51761;42.126;24.752;2023-04-07T08:53:23;99544.81;;;19.02;23.49
65175;BME280;51761;42.126;24.752;2023-04-07T08:55:54;99567.06;;;19.41;24.17
65175;BME280;51761;42.126;24.752;2023-04-07T08:58:20;99559.56;;;18.50;24.42
65175;BME280;51761;42.126;24.752;2023-04-07T09:00:46;99540.59;;;18.41;28.12
65175;BME280;51761;42.126;24.752;2023-04-07T09:03:15;99533.50;;;18.78;27.83
65175;BME280;51761;42.126;24.752;2023-04-07T09:05:43;99549.66;;;18.87;24.38
65175;BME280;51761;42.126;24.752;2023-04-07T09:08:10;99555.72;;;18.94;24.34
65175;BME280;51761;42.126;24.752;2023-04-07T09:10:36;99548.09;;;18.53;24.95
65175;BME280;51761;42.126;24.752;2023-04-07T09:13:02;99540.25;;;18.81;28.18
65175;BME280;51761;42.126;24.752;2023-04-07T09:15:31;99544.75;;;19.11;27.03
65175;BME280;51761;42.126;24.752;2023-04-07T09:17:57;99532.25;;;19.26;25.73
65175;BME280;51761;42.126;24.752;2023-04-07T09:20:23;99540.75;;;18.70;24.74
65175;BME280;51761;42.126;24.752;2023-04-07T09:22:49;99547.28;;;18.62;25.95
65175;BME280;51761;42.126;24.752;2023-04-07T09:25:17;99556.25;;;19.16;28.30
65175;BME280;51761;42.126;24.752;2023-04-07T09:28:00;99556.63;;;19.47;25.94
65175;BME280;51761;42.126;24.752;2023-04-07T09:30:27;99546.72;;;19.66;25.53
65175;BME280;51761;42.126;24.752;2023-04-07T09:32:53;99544.84;;;19.25;28.16
65175;BME280;51761;42.126;24.752;2023-04-07T09:35:19;99539.25;;;19.16;26.74
65175;BME280;51761;42.126;24.752;2023-04-07T09:38:01;99541.75;;;19.37;24.52
65175;BME280;51761;42.126;24.752;2023-04-07T09:40:27;99520.28;;;19.31;28.47
65175;BME280;51761;42.126;24.752;2023-04-07T09:42:53;99538.44;;;19.39;28.27
65175;BME280;51761;42.126;24.752;2023-04-07T09:45:29;99538.84;;;19.32;23.96
65175;BME280;51761;42.126;24.752;2023-04-07T09:47:56;99533.03;;;19.26;26.60
65175;BME280;51761;42.126;24.752;2023-04-07T09:50:54;99537.97;;;19.55;25.60
65175;BME280;51761;42.126;24.752;2023-04-07T09:53:51;99532.25;;;19.64;28.99
65175;BME280;51761;42.126;24.752;2023-04-07T09:56:18;99534.72;;;19.85;28.63
65175;BME280;51761;42.126;24.752;2023-04-07T09:58:47;99528.47;;;19.81;28.58
65175;BME280;51761;42.126;24.752;2023-04-07T10:01:14;99531.47;;;19.78;25.71
65175;BME280;51761;42.126;24.752;2023-04-07T10:03:44;99519.72;;;19.56;27.95
65175;BME280;51761;42.126;24.752;2023-04-07T10:06:11;99533.13;;;19.70;26.39
65175;BME280;51761;42.126;24.752;2023-04-07T10:08:38;99515.88;;;19.30;28.87
65175;BME280;51761;42.126;24.752;2023-04-07T10:11:05;99521.66;;;19.12;24.01
65175;BME280;51761;42.126;24.752;2023-04-07T10:13:32;99546.31;;;18.14;25.03
65175;BME280;51761;42.126;24.752;2023-04-07T10:15:59;99533.88;;;17.70;25.35
65175;BME280;51761;42.126;24.752;2023-04-07T10:18:31;99485.72;;;17.11;25.79
65175;BME280;51761;42.126;24.752;2023-04-07T10:21:02;99535.59;;;17.23;26.50
65175;BME280;51761;42.126;24.752;2023-04-07T10:26:33;99531.09;;;17.35;26.84
65175;BME280;51761;42.126;24.752;2023-04-07T10:29:04;99533.63;;;18.10;28.77
65175;BME280;51761;42.126;24.752;2023-04-07T10:31:31;99521.34;;;18.31;26.08
65175;BME280;51761;42.126;24.752;2023-04-07T10:33:57;99516.69;;;18.75;29.15
65175;BME280;51761;42.126;24.752;2023-04-07T10:36:23;99522.41;;;19.13;28.70
65175;BME280;51761;42.126;24.752;2023-04-07T10:41:32;99536.81;;;19.47;25.24
65175;BME280;51761;42.126;24.752;2023-04-07T10:44:09;99530.91;;;19.13;27.25
65175;BME280;51761;42.126;24.752;2023-04-07T10:47:09;99526.88;;;19.28;24.63
65175;BME280;51761;42.126;24.752;2023-04-07T10:49:35;99517.41;;;18.61;25.10
65175;BME280;51761;42.126;24.752;2023-04-07T10:54:39;99497.03;;;17.47;26.41
65175;BME280;51761;42.126;24.752;2023-04-07T10:57:12;99500.75;;;17.08;26.36
65175;BME280;51761;42.126;24.752;2023-04-07T11:02:39;99514.28;;;16.07;27.54
65175;BME280;51761;42.126;24.752;2023-04-07T11:05:05;99497.13;;;15.93;28.25
65175;BME280;51761;42.126;24.752;2023-04-07T11:07:46;99502.34;;;16.34;28.65
65175;BME280;51761;42.126;24.752;2023-04-07T11:10:14;99501.97;;;16.62;28.89
65175;BME280;51761;42.126;24.752;2023-04-07T11:12:41;99509.31;;;16.60;28.65
65175;BME280;51761;42.126;24.752;2023-04-07T11:15:20;99518.22;;;16.49;28.64
65175;BME280;51761;42.126;24.752;2023-04-07T11:18:04;99514.22;;;16.77;30.00
65175;BME280;51761;42.126;24.752;2023-04-07T11:20:59;99513.31;;;16.98;28.09
65175;BME280;51761;42.126;24.752;2023-04-07T11:23:26;99510.81;;;17.00;29.46
65175;BME280;51761;42.126;24.752;2023-04-07T11:25:58;99509.72;;;17.07;28.08
65175;BME280;51761;42.126;24.752;2023-04-07T11:28:26;99483.38;;;17.10;28.51
65175;BME280;51761;42.126;24.752;2023-04-07T11:30:52;99498.50;;;18.02;31.58
65175;BME280;51761;42.126;24.752;2023-04-07T11:33:30;99518.47;;;17.80;27.37
65175;BME280;51761;42.126;24.752;2023-04-07T11:35:57;99508.16;;;17.51;26.92
65175;BME280;51761;42.126;24.752;2023-04-07T11:38:25;99498.09;;;17.67;30.54
65175;BME280;51761;42.126;24.752;2023-04-07T11:40:52;99508.16;;;17.51;27.09
65175;BME280;51761;42.126;24.752;2023-04-07T11:43:21;99500.00;;;17.52;27.91
65175;BME280;51761;42.126;24.752;2023-04-07T11:46:13;99481.78;;;17.27;27.75
65175;BME280;51761;42.126;24.752;2023-04-07T11:48:40;99490.69;;;17.70;28.32
65175;BME280;51761;42.126;24.752;2023-04-07T11:51:17;99502.50;;;17.33;28.28
65175;BME280;51761;42.126;24.752;2023-04-07T11:53:43;99489.00;;;16.74;28.29
65175;BME280;51761;42.126;24.752;2023-04-07T11:56:11;99475.53;;;16.78;29.58
65175;BME280;51761;42.126;24.752;2023-04-07T11:58:50;99488.22;;;16.91;28.96
65175;BME280;51761;42.126;24.752;2023-04-07T12:01:16;99479.75;;;16.73;28.67
65175;BME280;51761;42.126;24.752;2023-04-07T12:04:03;99497.72;;;16.58;28.73
65175;BME280;51761;42.126;24.752;2023-04-07T12:06:35;99489.25;;;16.58;30.13
65175;BME280;51761;42.126;24.752;2023-04-07T12:09:06;99478.66;;;16.80;29.74
65175;BME280;51761;42.126;24.752;2023-04-07T12:11:32;99484.41;;;16.58;29.08
65175;BME280;51761;42.126;24.752;2023-04-07T12:13:59;99472.03;;;16.47;30.36
65175;BME280;51761;42.126;24.752;2023-04-07T12:16:25;99493.34;;;16.57;29.84
65175;BME280;51761;42.126;24.752;2023-04-07T12:18:51;99494.47;;;16.29;29.88
65175;BME280;51761;42.126;24.752;2023-04-07T12:21:17;99486.88;;;16.38;29.82
65175;BME280;51761;42.126;24.752;2023-04-07T12:23:43;99492.44;;;16.78;30.02
65175;BME280;51761;42.126;24.752;2023-04-07T12:26:09;99451.38;;;16.68;29.83
65175;BME280;51761;42.126;24.752;2023-04-07T12:28:36;99491.97;;;17.15;29.56
65175;BME280;51761;42.126;24.752;2023-04-07T12:31:02;99480.84;;;17.30;29.60
65175;BME280;51761;42.126;24.752;2023-04-07T12:33:28;99460.19;;;17.42;29.81
65175;BME280;51761;42.126;24.752;2023-04-07T12:35:54;99476.78;;;17.31;29.50
65175;BME280;51761;42.126;24.752;2023-04-07T12:38:20;99455.63;;;17.26;29.96
65175;BME280;51761;42.126;24.752;2023-04-07T12:40:45;99478.03;;;17.48;29.54
65175;BME280;51761;42.126;24.752;2023-04-07T12:43:11;99459.09;;;16.94;30.14
65175;BME280;51761;42.126;24.752;2023-04-07T12:45:36;99477.72;;;17.01;30.01
65175;BME280;51761;42.126;24.752;2023-04-07T12:48:02;99462.53;;;17.25;30.11
65175;BME280;51761;42.126;24.752;2023-04-07T12:50:28;99477.91;;;17.33;29.32
65175;BME280;51761;42.126;24.752;2023-04-07T12:52:54;99467.06;;;17.14;29.43
65175;BME280;51761;42.126;24.752;2023-04-07T12:55:20;99469.53;;;16.67;30.51
65175;BME280;51761;42.126;24.752;2023-04-07T12:57:46;99478.81;;;16.28;30.41
65175;BME280;51761;42.126;24.752;2023-04-07T13:00:12;99472.13;;;15.95;31.23
65175;BME280;51761;42.126;24.752;2023-04-07T13:02:38;99460.56;;;16.11;32.13
65175;BME280;51761;42.126;24.752;2023-04-07T13:05:04;99442.13;;;16.10;31.95
65175;BME280;51761;42.126;24.752;2023-04-07T13:07:30;99453.56;;;16.55;31.58
65175;BME280;51761;42.126;24.752;2023-04-07T13:09:55;99458.63;;;17.05;31.19
65175;BME280;51761;42.126;24.752;2023-04-07T13:12:22;99474.44;;;17.20;32.26
65175;BME280;51761;42.126;24.752;2023-04-07T13:14:47;99455.00;;;17.04;30.98
65175;BME280;51761;42.126;24.752;2023-04-07T13:17:13;99456.53;;;17.32;30.99